sensor_id;sensor_type;location;lat;lon;timestamp;pressure;altitude;pressure_sealevel;temperature;humidity
56038;BME280;41907;47.848;9.000;2023-08-31T15:54:26;95694.50;;;18.38;73.07
56038;BME280;41907;47.848;9.000;2023-08-31T15:56:54;95697.97;;;18.38;73.17
56038;BME280;41907;47.848;9.000;2023-08-31T15:59:19;95694.72;;;18.29;73.16
56038;BME280;41907;47.848;9.000;2023-08-31T16:01:45;95697.19;;;18.38;74.13
56038;BME280;41907;47.848;9.000;2023-08-31T16:04:10;95696.59;;;18.48;74.21
56038;BME280;41907;47.848;9.000;2023-08-31T16:06:35;95698.03;;;18.42;74.51
56038;BME280;41907;47.848;9.000;2023-08-31T16:09:03;95695.91;;;18.32;72.41
56038;BME280;41907;47.848;9.000;2023-08-31T16:11:30;95686.97;;;18.28;73.25
56038;BME280;41907;47.848;9.000;2023-08-31T16:13:56;95704.66;;;18.25;72.97
56038;BME280;41907;47.848;9.000;2023-08-31T16:16:24;95711.97;;;18.25;73.69
56038;BME280;41907;47.848;9.000;2023-08-31T16:18:49;95699.13;;;18.37;75.87
56038;BME280;41907;47.848;9.000;2023-08-31T16:21:15;95695.97;;;18.35;77.68
56038;BME280;41907;47.848;9.000;2023-08-31T16:23:40;95706.72;;;18.32;78.03
56038;BME280;41907;47.848;9.000;2023-08-31T16:26:06;95705.66;;;17.98;78.35
56038;BME280;41907;47.848;9.000;2023-08-31T16:28:31;95702.09;;;17.74;80.16
56038;BME280;41907;47.848;9.000;2023-08-31T16:30:56;95706.44;;;17.79;81.06
56038;BME280;41907;47.848;9.000;2023-08-31T16:33:22;95712.72;;;17.83;82.08
56038;BME280;41907;47.848;9.000;2023-08-31T16:35:56;95711.41;;;17.77;83.84
56038;BME280;41907;47.848;9.000;2023-08-31T16:38:22;95710.41;;;17.85;83.51
56038;BME280;41907;47.848;9.000;2023-08-31T16:40:47;95704.53;;;17.79;82.24
56038;BME280;41907;47.848;9.000;2023-08-31T16:43:12;95702.72;;;17.68;83.94
56038;BME280;41907;47.848;9.000;2023-08-31T16:45:38;95704.94;;;17.62;84.03
56038;BME280;41907;47.848;9.000;2023-08-31T16:48:03;95708.94;;;17.53;84.80
56038;BME280;41907;47.848;9.000;2023-08-31T16:50:34;95703.03;;;17.47;86.01
56038;BME280;41907;47.848;9.000;2023-08-31T16:52:59;95696.19;;;17.34;84.99
56038;BME280;41907;47.848;9.000;2023-08-31T16:55:25;95696.09;;;17.30;85.45
56038;BME280;41907;47.848;9.000;2023-08-31T16:57:53;95691.50;;;17.31;86.70
56038;BME280;41907;47.848;9.000;2023-08-31T17:00:19;95693.59;;;17.22;86.74
56038;BME280;41907;47.848;9.000;2023-08-31T17:02:45;95697.50;;;17.24;88.32
56038;BME280;41907;47.848;9.000;2023-08-31T17:05:10;95694.47;;;17.26;87.91
56038;BME280;41907;47.848;9.000;2023-08-31T17:07:36;95691.59;;;17.19;88.63
56038;BME280;41907;47.848;9.000;2023-08-31T17:10:01;95695.53;;;17.05;89.11
56038;BME280;41907;47.848;9.000;2023-08-31T17:12:26;95700.84;;;17.02;89.72
56038;BME280;41907;47.848;9.000;2023-08-31T17:14:52;95693.03;;;16.97;90.08
56038;BME280;41907;47.848;9.000;2023-08-31T17:17:17;95687.72;;;17.00;90.17
56038;BME280;41907;47.848;9.000;2023-08-31T17:19:43;95683.88;;;17.01;89.86
56038;BME280;41907;47.848;9.000;2023-08-31T17:22:08;95682.94;;;16.94;90.01
56038;BME280;41907;47.848;9.000;2023-08-31T17:24:33;95682.00;;;16.86;91.25
56038;BME280;41907;47.848;9.000;2023-08-31T17:26:59;95683.03;;;16.82;90.83
56038;BME280;41907;47.848;9.000;2023-08-31T17:29:25;95684.69;;;16.86;90.65
56038;BME280;41907;47.848;9.000;2023-08-31T17:31:50;95680.00;;;16.83;90.98
56038;BME280;41907;47.848;9.000;2023-08-31T17:34:16;95688.34;;;16.78;90.69
56038;BME280;41907;47.848;9.000;2023-08-31T17:36:44;95682.78;;;16.87;90.65
56038;BME280;41907;47.848;9.000;2023-08-31T17:39:09;95682.53;;;16.76;91.39
56038;BME280;41907;47.848;9.000;2023-08-31T17:41:35;95690.50;;;16.72;92.33
56038;BME280;41907;47.848;9.000;2023-08-31T17:44:00;95688.59;;;16.73;92.35
56038;BME280;41907;47.848;9.000;2023-08-31T17:46:26;95689.81;;;16.76;93.44
56038;BME280;41907;47.848;9.000;2023-08-31T17:48:51;95687.63;;;16.65;93.25
56038;BME280;41907;47.848;9.000;2023-08-31T17:51:16;95685.53;;;16.59;92.89
56038;BME280;41907;47.848;9.000;2023-08-31T17:53:42;95692.38;;;16.56;93.34
56038;BME280;41907;47.848;9.000;2023-08-31T17:56:08;95700.13;;;16.58;93.75
56038;BME280;41907;47.848;9.000;2023-08-31T17:58:34;95703.75;;;16.50;93.84
56038;BME280;41907;47.848;9.000;2023-08-31T18:00:59;95687.06;;;16.44;92.90
56038;BME280;41907;47.848;9.000;2023-08-31T18:03:25;95693.00;;;16.50;94.70
56038;BME280;41907;47.848;9.000;2023-08-31T18:05:51;95699.50;;;16.49;95.69
56038;BME280;41907;47.848;9.000;2023-08-31T18:08:18;95699.72;;;16.44;97.49
56038;BME280;41907;47.848;9.000;2023-08-31T18:10:43;95703.91;;;16.41;98.10
56038;BME280;41907;47.848;9.000;2023-08-31T18:13:09;95705.38;;;16.38;99.51
56038;BME280;41907;47.848;9.000;2023-08-31T18:15:34;95702.69;;;16.38;100.00
56038;BME280;41907;47.848;9.000;2023-08-31T18:17:59;95699.44;;;16.33;100.00
56038;BME280;41907;47.848;9.000;2023-08-31T18:20:24;95702.06;;;16.29;100.00
56038;BME280;41907;47.848;9.000;2023-08-31T18:22:51;95702.06;;;16.29;100.00
56038;BME280;41907;47.848;9.000;2023-08-31T18:25:17;95703.00;;;16.21;100.00
56038;BME280;41907;47.848;9.000;2023-08-31T18:27:42;95710.28;;;16.21;100.00
56038;BME280;41907;47.848;9.000;2023-08-31T18:30:08;95708.63;;;16.16;100.00
56038;BME280;41907;47.848;9.000;2023-08-31T18:32:34;95707.06;;;16.15;100.00
56038;BME280;41907;47.848;9.000;2023-08-31T18:35:02;95705.06;;;16.12;100.00
56038;BME280;41907;47.848;9.000;2023-08-31T18:37:28;95709.75;;;16.15;100.00
56038;BME280;41907;47.848;9.000;2023-08-31T18:39:53;95716.63;;;16.13;100.00
56038;BME280;41907;47.848;9.000;2023-08-31T18:42:18;95719.66;;;16.11;100.00
56038;BME280;41907;47.848;9.000;2023-08-31T18:44:44;95723.13;;;16.12;100.00
56038;BME280;41907;47.848;9.000;2023-08-31T18:47:09;95728.06;;;16.10;100.00
56038;BME280;41907;47.848;9.000;2023-08-31T18:49:35;95732.53;;;16.06;100.00
56038;BME280;41907;47.848;9.000;2023-08-31T18:52:00;95729.84;;;16.06;100.00
56038;BME280;41907;47.848;9.000;2023-08-31T18:54:25;95737.50;;;16.04;100.00
56038;BME280;41907;47.848;9.000;2023-08-31T18:56:51;95730.56;;;16.03;100.00
56038;BME280;41907;47.848;9.000;2023-08-31T18:59:16;95735.38;;;15.97;100.00
56038;BME280;41907;47.848;9.000;2023-08-31T19:01:41;95731.03;;;15.92;100.00
56038;BME280;41907;47.848;9.000;2023-08-31T19:04:07;95738.66;;;15.90;100.00
56038;BME280;41907;47.848;9.000;2023-08-31T19:06:33;95747.16;;;15.92;100.00
56038;BME280;41907;47.848;9.000;2023-08-31T19:08:59;95744.69;;;15.87;100.00
56038;BME280;41907;47.848;9.000;2023-08-31T19:11:25;95740.81;;;15.85;100.00
56038;BME280;41907;47.848;9.000;2023-08-31T19:13:51;95747.66;;;15.82;100.00
56038;BME280;41907;47.848;9.000;2023-08-31T19:16:17;95749.56;;;15.82;100.00
56038;BME280;41907;47.848;9.000;2023-08-31T19:18:45;95747.31;;;15.84;100.00
56038;BME280;41907;47.848;9.000;2023-08-31T19:21:12;95758.28;;;15.79;100.00
56038;BME280;41907;47.848;9.000;2023-08-31T19:23:37;95750.47;;;15.74;100.00
56038;BME280;41907;47.848;9.000;2023-08-31T19:26:04;95756.63;;;15.74;100.00
56038;BME280;41907;47.848;9.000;2023-08-31T19:28:36;95756.28;;;15.76;100.00
56038;BME280;41907;47.848;9.000;2023-08-31T19:31:02;95754.72;;;15.75;100.00
56038;BME280;41907;47.848;9.000;2023-08-31T19:33:27;95753.16;;;15.74;100.00
56038;BME280;41907;47.848;9.000;2023-08-31T19:35:53;95759.19;;;15.71;100.00
56038;BME280;41907;47.848;9.000;2023-08-31T19:38:19;95754.94;;;15.70;100.00
56038;BME280;41907;47.848;9.000;2023-08-31T19:40:45;95766.59;;;15.74;100.00
56038;BME280;41907;47.848;9.000;2023-08-31T19:43:11;95765.91;;;15.77;100.00
56038;BME280;41907;47.848;9.000;2023-08-31T19:45:38;95766.69;;;15.77;100.00
56038;BME280;41907;47.848;9.000;2023-08-31T19:48:04;95767.06;;;15.76;100.00
56038;BME280;41907;47.848;9.000;2023-08-31T19:50:29;95771.19;;;15.73;100.00
56038;BME280;41907;47.848;9.000;2023-08-31T19:52:55;95779.34;;;15.77;100.00
56038;BME280;41907;47.848;9.000;2023-08-31T19:55:21;95775.13;;;15.76;100.00
56038;BME280;41907;47.848;9.000;2023-08-31T19:57:47;95767.81;;;15.76;100.00
56038;BME280;41907;47.848;9.000;2023-08-31T20:00:13;95775.66;;;15.69;100.00
56038;BME280;41907;47.848;9.000;2023-08-31T20:02:43;95782.28;;;15.72;100.00
56038;BME280;41907;47.848;9.000;2023-08-31T20:05:09;95776.78;;;15.68;100.00
56038;BME280;41907;47.848;9.000;2023-08-31T20:07:34;95781.09;;;15.57;100.00
56038;BME280;41907;47.848;9.000;2023-08-31T20:10:00;95779.72;;;15.63;100.00
56038;BME280;41907;47.848;9.000;2023-08-31T20:12:26;95776.59;;;15.61;100.00
56038;BME280;41907;47.848;9.000;2023-08-31T20:14:52;95778.81;;;15.59;100.00
56038;BME280;41907;47.848;9.000;2023-08-31T20:17:17;95777.59;;;15.56;100.00
56038;BME280;41907;47.848;9.000;2023-08-31T20:19:43;95773.78;;;15.57;100.00
56038;BME280;41907;47.848;9.000;2023-08-31T20:22:09;95773.91;;;15.61;100.00
56038;BME280;41907;47.848;9.000;2023-08-31T20:24:34;95773.91;;;15.61;100.00
56038;BME280;41907;47.848;9.000;2023-08-31T20:27:00;95771.19;;;15.61;100.00
56038;BME280;41907;47.848;9.000;2023-08-31T20:29:27;95768.19;;;15.62;100.00
56038;BME280;41907;47.848;9.000;2023-08-31T20:31:53;95766.06;;;15.56;100.00
56038;BME280;41907;47.848;9.000;2023-08-31T20:34:18;95773.53;;;15.50;100.00
56038;BME280;41907;47.848;9.000;2023-08-31T20:36:43;95768.94;;;15.51;100.00
56038;BME280;41907;47.848;9.000;2023-08-31T20:39:10;95766.72;;;15.41;100.00
56038;BME280;41907;47.848;9.000;2023-08-31T20:41:36;95773.19;;;15.40;100.00
56038;BME280;41907;47.848;9.000;2023-08-31T20:44:02;95777.25;;;15.46;100.00
56038;BME280;41907;47.848;9.000;2023-08-31T20:46:30;95785.31;;;15.46;100.00
56038;BME280;41907;47.848;9.000;2023-08-31T20:48:57;95786.44;;;15.45;100.00
56038;BME280;41907;47.848;9.000;2023-08-31T20:51:23;95786.75;;;15.43;100.00
56038;BME280;41907;47.848;9.000;2023-08-31T20:53:48;95787.44;;;15.40;100.00
56038;BME280;41907;47.848;9.000;2023-08-31T20:56:18;95792.91;;;15.44;100.00
56038;BME280;41907;47.848;9.000;2023-08-31T20:58:43;95795.50;;;15.40;100.00
56038;BME280;41907;47.848;9.000;2023-08-31T21:01:11;95795.16;;;15.42;100.00
56038;BME280;41907;47.848;9.000;2023-08-31T21:03:39;95795.94;;;15.42;100.00
56038;BME280;41907;47.848;9.000;2023-08-31T21:06:08;95800.53;;;15.42;100.00
56038;BME280;41907;47.848;9.000;2023-08-31T21:08:34;95801.44;;;15.34;100.00
56038;BME280;41907;47.848;9.000;2023-08-31T21:11:00;95801.75;;;15.32;100.00
56038;BME280;41907;47.848;9.000;2023-08-31T21:13:26;95808.56;;;15.30;100.00
56038;BME280;41907;47.848;9.000;2023-08-31T21:15:55;95809.72;;;15.29;100.00
56038;BME280;41907;47.848;9.000;2023-08-31T21:18:20;95808.56;;;15.30;100.00
56038;BME280;41907;47.848;9.000;2023-08-31T21:20:46;95801.75;;;15.32;100.00
56038;BME280;41907;47.848;9.000;2023-08-31T21:23:11;95807.91;;;15.33;100.00
56038;BME280;41907;47.848;9.000;2023-08-31T21:25:39;95810.47;;;15.29;100.00
56038;BME280;41907;47.848;9.000;2023-08-31T21:28:05;95814.06;;;15.33;100.00
56038;BME280;41907;47.848;9.000;2023-08-31T21:30:30;95816.63;;;15.30;100.00
56038;BME280;41907;47.848;9.000;2023-08-31T21:33:01;95814.75;;;15.30;100.00
56038;BME280;41907;47.848;9.000;2023-08-31T21:35:26;95817.78;;;15.29;100.00
56038;BME280;41907;47.848;9.000;2023-08-31T21:37:51;95815.75;;;15.25;100.00
56038;BME280;41907;47.848;9.000;2023-08-31T21:40:17;95820.78;;;15.15;100.00
56038;BME280;41907;47.848;9.000;2023-08-31T21:42:43;95816.41;;;15.10;100.00
56038;BME280;41907;47.848;9.000;2023-08-31T21:45:08;95801.84;;;15.11;100.00
56038;BME280;41907;47.848;9.000;2023-08-31T21:47:34;95817.97;;;15.11;100.00
56038;BME280;41907;47.848;9.000;2023-08-31T21:49:59;95816.31;;;15.07;100.00
56038;BME280;41907;47.848;9.000;2023-08-31T21:52:25;95817.50;;;14.97;100.00
56038;BME280;41907;47.848;9.000;2023-08-31T21:54:50;95818.41;;;15.01;100.00
56038;BME280;41907;47.848;9.000;2023-08-31T21:57:15;95816.38;;;14.86;100.00
56038;BME280;41907;47.848;9.000;2023-08-31T21:59:41;95819.94;;;14.78;100.00
56038;BME280;41907;47.848;9.000;2023-08-31T22:02:06;95806.81;;;14.76;100.00
56038;BME280;41907;47.848;9.000;2023-08-31T22:04:34;95816.69;;;14.84;100.00
56038;BME280;41907;47.848;9.000;2023-08-31T22:07:01;95823.75;;;14.89;100.00
56038;BME280;41907;47.848;9.000;2023-08-31T22:09:27;95819.00;;;14.74;100.00
56038;BME280;41907;47.848;9.000;2023-08-31T22:11:53;95821.59;;;14.70;100.00
56038;BME280;41907;47.848;9.000;2023-08-31T22:14:18;95830.28;;;14.67;100.00
56038;BME280;41907;47.848;9.000;2023-08-31T22:16:44;95820.34;;;14.68;100.00
56038;BME280;41907;47.848;9.000;2023-08-31T22:19:09;95825.84;;;14.71;100.00
56038;BME280;41907;47.848;9.000;2023-08-31T22:21:35;95819.59;;;14.79;100.00
56038;BME280;41907;47.848;9.000;2023-08-31T22:24:00;95810.84;;;14.82;100.00
56038;BME280;41907;47.848;9.000;2023-08-31T22:26:25;95820.72;;;14.78;100.00
56038;BME280;41907;47.848;9.000;2023-08-31T22:28:51;95812.88;;;14.85;100.00
56038;BME280;41907;47.848;9.000;2023-08-31T22:31:16;95812.75;;;14.82;100.00
56038;BME280;41907;47.848;9.000;2023-08-31T22:33:42;95811.88;;;14.78;100.00
56038;BME280;41907;47.848;9.000;2023-08-31T22:36:07;95820.56;;;14.75;100.00
56038;BME280;41907;47.848;9.000;2023-08-31T22:38:32;95828.41;;;14.68;100.00
56038;BME280;41907;47.848;9.000;2023-08-31T22:40:58;95822.31;;;14.59;100.00
56038;BME280;41907;47.848;9.000;2023-08-31T22:43:23;95828.34;;;14.56;100.00
56038;BME280;41907;47.848;9.000;2023-08-31T22:45:58;95825.78;;;14.59;100.00
56038;BME280;41907;47.848;9.000;2023-08-31T22:48:24;95822.66;;;14.57;100.00
56038;BME280;41907;47.848;9.000;2023-08-31T22:51:02;95824.09;;;14.55;100.00
56038;BME280;41907;47.848;9.000;2023-08-31T22:53:31;95819.50;;;14.55;100.00
56038;BME280;41907;47.848;9.000;2023-08-31T22:55:57;95813.31;;;14.42;100.00
56038;BME280;41907;47.848;9.000;2023-08-31T22:58:22;95822.59;;;14.45;100.00
56038;BME280;41907;47.848;9.000;2023-08-31T23:00:48;95824.75;;;14.51;100.00
56038;BME280;41907;47.848;9.000;2023-08-31T23:03:14;95821.41;;;14.55;100.00
56038;BME280;41907;47.848;9.000;2023-08-31T23:05:44;95812.47;;;14.50;100.00
56038;BME280;41907;47.848;9.000;2023-08-31T23:08:10;95821.81;;;14.44;100.00
56038;BME280;41907;47.848;9.000;2023-08-31T23:10:35;95828.63;;;14.42;100.00
56038;BME280;41907;47.848;9.000;2023-08-31T23:13:01;95817.75;;;14.38;100.00
56038;BME280;41907;47.848;9.000;2023-08-31T23:15:26;95817.97;;;14.33;100.00
56038;BME280;41907;47.848;9.000;2023-08-31T23:17:51;95818.69;;;14.22;100.00
56038;BME280;41907;47.848;9.000;2023-08-31T23:20:17;95815.38;;;14.16;100.00
56038;BME280;41907;47.848;9.000;2023-08-31T23:22:45;95811.03;;;14.11;100.00
56038;BME280;41907;47.848;9.000;2023-08-31T23:25:10;95815.13;;;14.09;100.00
56038;BME280;41907;47.848;9.000;2023-08-31T23:27:38;95821.03;;;14.02;100.00
56038;BME280;41907;47.848;9.000;2023-08-31T23:30:04;95819.47;;;14.01;100.00
56038;BME280;41907;47.848;9.000;2023-08-31T23:32:29;95823.88;;;13.97;100.00
56038;BME280;41907;47.848;9.000;2023-08-31T23:34:55;95824.50;;;14.03;100.00
56038;BME280;41907;47.848;9.000;2023-08-31T23:37:20;95822.06;;;14.10;100.00
56038;BME280;41907;47.848;9.000;2023-08-31T23:39:45;95821.09;;;14.14;100.00
56038;BME280;41907;47.848;9.000;2023-08-31T23:42:11;95814.41;;;14.21;100.00
56038;BME280;41907;47.848;9.000;2023-08-31T23:44:36;95814.22;;;14.26;100.00
56038;BME280;41907;47.848;9.000;2023-08-31T23:47:01;95810.56;;;14.30;100.00
56038;BME280;41907;47.848;9.000;2023-08-31T23:49:27;95815.91;;;14.30;100.00
56038;BME280;41907;47.848;9.000;2023-08-31T23:51:52;95814.09;;;14.22;100.00
56038;BME280;41907;47.848;9.000;2023-08-31T23:54:18;95810.81;;;14.16;100.00
56038;BME280;41907;47.848;9.000;2023-08-31T23:56:43;95805.81;;;14.15;100.00
56038;BME280;41907;47.848;9.000;2023-08-31T23:59:09;95804.66;;;14.16;100.00
